createdAt,value
2024-02-14T00:00:09.938Z,5.82
2024-02-14T00:00:20.380Z,5.81
2024-02-14T00:00:30.918Z,5.82
2024-02-14T00:00:41.439Z,5.82
2024-02-14T00:00:51.919Z,5.83
2024-02-14T00:01:02.450Z,5.83
2024-02-14T00:01:12.958Z,5.85
2024-02-14T00:01:23.498Z,5.86
2024-02-14T00:01:33.995Z,5.89
2024-02-14T00:01:44.451Z,5.89
2024-02-14T00:01:54.974Z,5.90
2024-02-14T00:02:05.512Z,5.91
2024-02-14T00:02:15.983Z,5.93
2024-02-14T00:02:26.512Z,5.93
2024-02-14T00:02:36.995Z,5.96
2024-02-14T00:02:47.555Z,5.93
2024-02-14T00:02:58.237Z,5.96
2024-02-14T00:03:08.632Z,5.93
2024-02-14T00:03:19.140Z,5.94
2024-02-14T00:03:29.567Z,5.96
2024-02-14T00:03:40.064Z,5.94
2024-02-14T00:03:50.569Z,5.93
2024-02-14T00:04:01.096Z,5.93
2024-02-14T00:04:11.581Z,5.93
2024-02-14T00:04:22.061Z,5.91
2024-02-14T00:04:32.558Z,5.93
2024-02-14T00:04:43.057Z,5.93
2024-02-14T00:04:53.562Z,5.91
2024-02-14T00:05:04.144Z,5.89
2024-02-14T00:05:14.621Z,5.89
2024-02-14T00:05:25.127Z,5.86
2024-02-14T00:05:35.668Z,5.86
2024-02-14T00:05:46.167Z,5.86
2024-02-14T00:05:56.638Z,5.86
2024-02-14T00:06:07.395Z,5.83
2024-02-14T00:06:17.666Z,5.83
2024-02-14T00:06:28.169Z,5.82
2024-02-14T00:06:38.947Z,5.83
2024-02-14T00:06:49.184Z,5.81
2024-02-14T00:06:59.714Z,5.82
2024-02-14T00:07:10.238Z,5.83
2024-02-14T00:07:20.727Z,5.82
2024-02-14T00:07:31.181Z,5.81
2024-02-14T00:07:41.697Z,5.81
2024-02-14T00:07:52.246Z,5.82
2024-02-14T00:08:02.758Z,5.81
2024-02-14T00:08:13.228Z,5.82
2024-02-14T00:08:23.768Z,5.81
2024-02-14T00:08:34.271Z,5.82
2024-02-14T00:08:44.839Z,5.82
2024-02-14T00:08:55.298Z,5.83
2024-02-14T00:09:05.772Z,5.82
2024-02-14T00:09:16.290Z,5.83
2024-02-14T00:09:26.797Z,5.83
2024-02-14T00:09:37.281Z,5.83
2024-02-14T00:09:47.791Z,5.85
2024-02-14T00:09:58.297Z,5.82
2024-02-14T00:10:08.821Z,5.82
2024-02-14T00:10:19.310Z,5.82
2024-02-14T00:10:29.844Z,5.81
2024-02-14T00:10:40.352Z,5.82
2024-02-14T00:10:50.838Z,5.81
2024-02-14T00:11:01.363Z,5.82
2024-02-14T00:11:11.877Z,5.79
2024-02-14T00:11:22.462Z,5.78
2024-02-14T00:11:32.900Z,5.79
2024-02-14T00:11:43.438Z,5.78
2024-02-14T00:11:53.939Z,5.76
2024-02-14T00:12:04.457Z,5.78
2024-02-14T00:12:14.913Z,5.75
2024-02-14T00:12:25.403Z,5.75
2024-02-14T00:12:35.952Z,5.75
2024-02-14T00:12:46.435Z,5.76
2024-02-14T00:12:56.932Z,5.76
2024-02-14T00:13:07.433Z,5.78
2024-02-14T00:13:17.954Z,5.76
2024-02-14T00:13:28.455Z,5.78
2024-02-14T00:13:38.952Z,5.78
2024-02-14T00:13:49.465Z,5.79
2024-02-14T00:13:59.961Z,5.79
2024-02-14T00:14:10.490Z,5.79
2024-02-14T00:14:20.987Z,5.79
2024-02-14T00:14:31.532Z,5.79
2024-02-14T00:14:42.070Z,5.79
2024-02-14T00:14:52.536Z,5.79
2024-02-14T00:15:03.234Z,5.78
2024-02-14T00:15:13.581Z,5.76
2024-02-14T00:15:24.030Z,5.75
2024-02-14T00:15:34.549Z,5.75
2024-02-14T00:15:45.080Z,5.76
2024-02-14T00:15:55.603Z,5.78
2024-02-14T00:16:06.062Z,5.76
2024-02-14T00:16:16.568Z,5.78
2024-02-14T00:16:27.108Z,5.75
2024-02-14T00:16:37.619Z,5.75
2024-02-14T00:16:48.122Z,5.75
2024-02-14T00:16:58.659Z,5.76
2024-02-14T00:17:09.116Z,5.78
2024-02-14T00:17:19.630Z,5.78
2024-02-14T00:17:30.213Z,5.79
2024-02-14T00:17:40.740Z,5.81
2024-02-14T00:17:51.206Z,5.79
2024-02-14T00:18:01.767Z,5.79
2024-02-14T00:18:12.280Z,5.78
2024-02-14T00:18:22.806Z,5.81
2024-02-14T00:18:33.398Z,5.81
2024-02-14T00:18:43.869Z,5.78
2024-02-14T00:18:54.478Z,5.81
2024-02-14T00:19:04.983Z,5.79
2024-02-14T00:19:15.405Z,5.82
2024-02-14T00:19:25.794Z,5.83
2024-02-14T00:19:36.255Z,5.82
2024-02-14T00:19:46.777Z,5.86
2024-02-14T00:19:57.286Z,5.83
2024-02-14T00:20:07.762Z,5.85
2024-02-14T00:20:18.275Z,5.86
2024-02-14T00:20:28.793Z,5.86
2024-02-14T00:20:39.348Z,5.86
2024-02-14T00:20:49.852Z,5.90
2024-02-14T00:21:00.422Z,5.89
2024-02-14T00:21:10.866Z,5.89
2024-02-14T00:21:21.335Z,5.90
2024-02-14T00:21:31.818Z,5.89
2024-02-14T00:21:42.335Z,5.91
2024-02-14T00:21:52.843Z,5.91
2024-02-14T00:22:03.350Z,5.91
2024-02-14T00:22:13.859Z,5.91
2024-02-14T00:22:24.360Z,5.93
2024-02-14T00:22:34.880Z,5.91
2024-02-14T00:22:45.387Z,5.94
2024-02-14T00:22:55.906Z,5.91
2024-02-14T00:23:06.437Z,5.91
2024-02-14T00:23:16.909Z,5.93
2024-02-14T00:23:27.465Z,5.93
2024-02-14T00:23:37.986Z,5.93
2024-02-14T00:23:48.490Z,5.91
2024-02-14T00:23:58.962Z,5.93
2024-02-14T00:24:09.487Z,5.94
2024-02-14T00:24:19.963Z,5.97
2024-02-14T00:24:30.484Z,5.97
2024-02-14T00:24:40.981Z,5.97
2024-02-14T00:24:51.491Z,5.97
2024-02-14T00:25:02.012Z,5.99
2024-02-14T00:25:12.521Z,6.00
2024-02-14T00:25:23.022Z,6.00
2024-02-14T00:25:33.527Z,5.99
2024-02-14T00:25:44.058Z,6.00
2024-02-14T00:25:54.566Z,5.99
2024-02-14T00:26:05.102Z,5.99
2024-02-14T00:26:15.637Z,6.00
2024-02-14T00:26:26.089Z,6.01
2024-02-14T00:26:36.621Z,6.01
2024-02-14T00:26:47.137Z,6.01
2024-02-14T00:26:57.603Z,6.01
2024-02-14T00:27:08.153Z,6.00
2024-02-14T00:27:18.638Z,6.01
2024-02-14T00:27:29.113Z,6.03
2024-02-14T00:27:39.624Z,6.03
2024-02-14T00:27:50.129Z,6.04
2024-02-14T00:28:00.630Z,6.03
2024-02-14T00:28:11.129Z,6.04
2024-02-14T00:28:21.645Z,6.04
2024-02-14T00:28:32.172Z,6.06
2024-02-14T00:28:42.660Z,6.04
2024-02-14T00:28:53.169Z,6.04
2024-02-14T00:29:03.727Z,6.06
2024-02-14T00:29:14.179Z,6.06
2024-02-14T00:29:24.721Z,6.11
2024-02-14T00:29:35.297Z,6.09
2024-02-14T00:29:45.739Z,6.11
2024-02-14T00:29:56.417Z,6.12
2024-02-14T00:30:06.774Z,6.12
2024-02-14T00:30:17.317Z,6.12
2024-02-14T00:30:30.783Z,6.14
2024-02-14T00:30:38.245Z,6.12
2024-02-14T00:30:48.771Z,6.14
2024-02-14T00:30:59.265Z,6.14
2024-02-14T00:31:09.813Z,6.14
2024-02-14T00:31:20.306Z,6.12
2024-02-14T00:31:30.783Z,6.15
2024-02-14T00:31:41.293Z,6.14
2024-02-14T00:31:51.798Z,6.15
2024-02-14T00:32:02.377Z,6.14
2024-02-14T00:32:12.895Z,6.15
2024-02-14T00:32:23.755Z,6.14
2024-02-14T00:32:33.925Z,6.14
2024-02-14T00:32:44.580Z,6.14
2024-02-14T00:32:55.066Z,6.12
2024-02-14T00:33:05.485Z,6.11
2024-02-14T00:33:16.056Z,6.12
2024-02-14T00:33:26.559Z,6.11
2024-02-14T00:33:37.120Z,6.12
2024-02-14T00:33:47.703Z,6.11
2024-02-14T00:33:58.188Z,6.12
2024-02-14T00:34:08.566Z,6.12
2024-02-14T00:34:19.064Z,6.12
2024-02-14T00:34:29.561Z,6.12
2024-02-14T00:34:40.086Z,6.14
2024-02-14T00:34:50.535Z,6.14
2024-02-14T00:35:01.025Z,6.14
2024-02-14T00:35:11.560Z,6.17
2024-02-14T00:35:21.956Z,6.15
2024-02-14T00:35:32.530Z,6.15
2024-02-14T00:35:42.958Z,6.17
2024-02-14T00:35:53.529Z,6.17
2024-02-14T00:36:04.057Z,6.17
2024-02-14T00:36:14.486Z,6.17
2024-02-14T00:36:24.958Z,6.19
2024-02-14T00:36:35.536Z,6.18
2024-02-14T00:36:45.973Z,6.19
2024-02-14T00:36:56.478Z,6.19
2024-02-14T00:37:06.995Z,6.18
2024-02-14T00:37:17.518Z,6.18
2024-02-14T00:37:27.993Z,6.18
2024-02-14T00:37:38.525Z,6.18
2024-02-14T00:37:49.025Z,6.18
2024-02-14T00:37:59.528Z,6.18
2024-02-14T00:38:10.055Z,6.18
2024-02-14T00:38:20.536Z,6.18
2024-02-14T00:38:31.082Z,6.18
2024-02-14T00:38:41.718Z,6.18
2024-02-14T00:38:52.075Z,6.18
2024-02-14T00:39:02.701Z,6.19
2024-02-14T00:39:13.065Z,6.18
2024-02-14T00:39:23.567Z,6.18
2024-02-14T00:39:34.075Z,6.19
2024-02-14T00:39:44.587Z,6.18
2024-02-14T00:39:55.089Z,6.17
2024-02-14T00:40:05.660Z,6.15
2024-02-14T00:40:16.123Z,6.15
2024-02-14T00:40:26.612Z,6.17
2024-02-14T00:40:37.114Z,6.15
2024-02-14T00:40:47.622Z,6.15
2024-02-14T00:40:58.139Z,6.14
2024-02-14T00:41:08.664Z,6.15
2024-02-14T00:41:19.141Z,6.14
2024-02-14T00:41:29.674Z,6.14
2024-02-14T00:41:40.214Z,6.14
2024-02-14T00:41:50.756Z,6.14
2024-02-14T00:42:01.220Z,6.14
2024-02-14T00:42:11.687Z,6.14
2024-02-14T00:42:22.182Z,6.17
2024-02-14T00:42:32.699Z,6.14
2024-02-14T00:42:43.247Z,6.15
2024-02-14T00:42:53.704Z,6.15
2024-02-14T00:43:04.246Z,6.18
2024-02-14T00:43:14.828Z,6.17
2024-02-14T00:43:25.249Z,6.18
2024-02-14T00:43:35.722Z,6.18
2024-02-14T00:43:46.239Z,6.15
2024-02-14T00:43:56.754Z,6.18
2024-02-14T00:44:07.246Z,6.19
2024-02-14T00:44:17.760Z,6.18
2024-02-14T00:44:28.320Z,6.18
2024-02-14T00:44:38.830Z,6.19
2024-02-14T00:44:49.295Z,6.19
2024-02-14T00:44:59.821Z,6.18
2024-02-14T00:45:10.318Z,6.19
2024-02-14T00:45:20.800Z,6.19
2024-02-14T00:45:31.302Z,6.18
2024-02-14T00:45:41.813Z,6.19
2024-02-14T00:45:52.349Z,6.19
2024-02-14T00:46:02.818Z,6.21
2024-02-14T00:46:13.322Z,6.25
2024-02-14T00:46:23.839Z,6.25
2024-02-14T00:46:34.343Z,6.27
2024-02-14T00:46:44.854Z,6.30
2024-02-14T00:46:55.347Z,6.27
2024-02-14T00:47:05.957Z,6.30
2024-02-14T00:47:16.398Z,6.30
2024-02-14T00:47:26.971Z,6.30
2024-02-14T00:47:37.579Z,6.28
2024-02-14T00:47:48.071Z,6.30
2024-02-14T00:47:58.661Z,6.30
2024-02-14T00:48:09.213Z,6.31
2024-02-14T00:48:19.567Z,6.33
2024-02-14T00:48:30.047Z,6.33
2024-02-14T00:48:40.554Z,6.33
2024-02-14T00:48:51.003Z,6.34
2024-02-14T00:49:01.642Z,6.36
2024-02-14T00:49:12.103Z,6.37
2024-02-14T00:49:22.629Z,6.40
2024-02-14T00:49:33.159Z,6.41
2024-02-14T00:49:43.546Z,6.41
2024-02-14T00:49:54.004Z,6.43
2024-02-14T00:50:04.505Z,6.46
2024-02-14T00:50:15.199Z,6.44
2024-02-14T00:50:25.572Z,6.48
2024-02-14T00:50:36.073Z,6.49
2024-02-14T00:50:46.605Z,6.49
2024-02-14T00:50:57.061Z,6.51
2024-02-14T00:51:07.592Z,6.52
2024-02-14T00:51:18.049Z,6.52
2024-02-14T00:51:28.537Z,6.54
2024-02-14T00:51:39.061Z,6.55
2024-02-14T00:51:49.568Z,6.54
2024-02-14T00:52:00.099Z,6.54
2024-02-14T00:52:10.586Z,6.52
2024-02-14T00:52:21.091Z,6.54
2024-02-14T00:52:31.594Z,6.55
2024-02-14T00:52:42.122Z,6.54
2024-02-14T00:52:52.612Z,6.54
2024-02-14T00:53:03.138Z,6.55
2024-02-14T00:53:13.644Z,6.52
2024-02-14T00:53:24.176Z,6.54
2024-02-14T00:53:34.683Z,6.54
2024-02-14T00:53:45.181Z,6.54
2024-02-14T00:53:55.715Z,6.55
2024-02-14T00:54:06.247Z,6.54
2024-02-14T00:54:16.672Z,6.51
2024-02-14T00:54:27.176Z,6.52
2024-02-14T00:54:37.698Z,6.52
2024-02-14T00:54:48.227Z,6.52
2024-02-14T00:54:58.715Z,6.52
2024-02-14T00:55:09.241Z,6.51
2024-02-14T00:55:19.708Z,6.52
2024-02-14T00:55:30.224Z,6.54
2024-02-14T00:55:40.718Z,6.51
2024-02-14T00:55:51.233Z,6.51
2024-02-14T00:56:01.728Z,6.51
2024-02-14T00:56:12.240Z,6.52
2024-02-14T00:56:22.765Z,6.52
2024-02-14T00:56:33.272Z,6.52
2024-02-14T00:56:43.774Z,6.52
2024-02-14T00:56:54.282Z,6.52
2024-02-14T00:57:04.801Z,6.55
2024-02-14T00:57:15.279Z,6.55
2024-02-14T00:57:25.774Z,6.55
2024-02-14T00:57:36.284Z,6.56
2024-02-14T00:57:46.787Z,6.56
2024-02-14T00:57:57.327Z,6.56
2024-02-14T00:58:07.813Z,6.58
2024-02-14T00:58:18.312Z,6.58
2024-02-14T00:58:28.847Z,6.58
2024-02-14T00:58:39.331Z,6.56
2024-02-14T00:58:49.829Z,6.58
2024-02-14T00:59:00.344Z,6.58
2024-02-14T00:59:10.844Z,6.56
2024-02-14T00:59:21.376Z,6.55
2024-02-14T00:59:31.865Z,6.56
2024-02-14T00:59:42.439Z,6.55
2024-02-14T00:59:52.910Z,6.55
2024-02-14T01:00:03.456Z,6.55
2024-02-14T01:00:13.936Z,6.54
2024-02-14T01:00:24.425Z,6.54
2024-02-14T01:00:36.630Z,6.55
2024-02-14T01:00:45.437Z,6.55
2024-02-14T01:00:55.970Z,6.54
2024-02-14T01:01:06.446Z,6.55
2024-02-14T01:01:16.959Z,6.56
2024-02-14T01:01:27.447Z,6.54
2024-02-14T01:01:38.146Z,6.54
2024-02-14T01:01:48.485Z,6.55
2024-02-14T01:01:58.967Z,6.55
2024-02-14T01:02:09.474Z,6.55
2024-02-14T01:02:19.988Z,6.54
2024-02-14T01:02:30.511Z,6.54
2024-02-14T01:02:41.011Z,6.55
2024-02-14T01:02:51.608Z,6.54
2024-02-14T01:03:02.039Z,6.54
2024-02-14T01:03:12.548Z,6.52
2024-02-14T01:03:23.017Z,6.54
2024-02-14T01:03:33.546Z,6.54
2024-02-14T01:03:44.070Z,6.55
2024-02-14T01:03:54.583Z,6.54
2024-02-14T01:04:05.115Z,6.52
2024-02-14T01:04:15.633Z,6.51
2024-02-14T01:04:26.070Z,6.52
2024-02-14T01:04:36.580Z,6.52
2024-02-14T01:04:47.145Z,6.51
2024-02-14T01:04:57.622Z,6.52
2024-02-14T01:05:08.185Z,6.51
2024-02-14T01:05:18.663Z,6.49
2024-02-14T01:05:29.256Z,6.49
2024-02-14T01:05:39.712Z,6.49
2024-02-14T01:05:50.323Z,6.49
2024-02-14T01:06:00.893Z,6.46
2024-02-14T01:06:11.226Z,6.48
2024-02-14T01:06:21.777Z,6.49
2024-02-14T01:06:32.265Z,6.51
2024-02-14T01:06:42.735Z,6.52
2024-02-14T01:06:53.257Z,6.54
2024-02-14T01:07:03.694Z,6.56
2024-02-14T01:07:14.195Z,6.58
2024-02-14T01:07:24.701Z,6.56
2024-02-14T01:07:35.213Z,6.58
2024-02-14T01:07:45.724Z,6.59
2024-02-14T01:07:56.228Z,6.59
2024-02-14T01:08:06.737Z,6.62
2024-02-14T01:08:17.261Z,6.61
2024-02-14T01:08:27.766Z,6.61
2024-02-14T01:08:38.267Z,6.62
2024-02-14T01:08:48.810Z,6.62
2024-02-14T01:08:59.373Z,6.64
2024-02-14T01:09:09.877Z,6.64
2024-02-14T01:09:20.308Z,6.62
2024-02-14T01:09:30.802Z,6.61
2024-02-14T01:09:41.306Z,6.62
2024-02-14T01:09:51.846Z,6.64
2024-02-14T01:10:02.329Z,6.64
2024-02-14T01:10:12.840Z,6.64
2024-02-14T01:10:23.360Z,6.64
2024-02-14T01:10:33.846Z,6.62
2024-02-14T01:10:44.352Z,6.62
2024-02-14T01:10:54.853Z,6.62
2024-02-14T01:11:05.399Z,6.61
2024-02-14T01:11:15.872Z,6.61
2024-02-14T01:11:26.412Z,6.64
2024-02-14T01:11:36.912Z,6.62
2024-02-14T01:11:47.448Z,6.61
2024-02-14T01:11:57.941Z,6.62
2024-02-14T01:12:08.428Z,6.61
2024-02-14T01:12:18.951Z,6.62
2024-02-14T01:12:29.421Z,6.62
2024-02-14T01:12:39.936Z,6.61
2024-02-14T01:12:50.474Z,6.62
2024-02-14T01:13:00.957Z,6.62
2024-02-14T01:13:11.467Z,6.61
2024-02-14T01:13:21.970Z,6.62
2024-02-14T01:13:32.471Z,6.61
2024-02-14T01:13:42.982Z,6.61
2024-02-14T01:13:53.511Z,6.61
2024-02-14T01:14:04.010Z,6.61
2024-02-14T01:14:14.509Z,6.61
2024-02-14T01:14:25.068Z,6.61
2024-02-14T01:14:35.662Z,6.61
2024-02-14T01:14:46.043Z,6.61
2024-02-14T01:14:56.602Z,6.61
2024-02-14T01:15:07.191Z,6.59
2024-02-14T01:15:17.574Z,6.61
2024-02-14T01:15:28.111Z,6.59
2024-02-14T01:15:38.589Z,6.59
2024-02-14T01:15:49.084Z,6.59
2024-02-14T01:15:59.598Z,6.59
2024-02-14T01:16:10.112Z,6.59
2024-02-14T01:16:20.615Z,6.59
2024-02-14T01:16:31.120Z,6.61
2024-02-14T01:16:41.640Z,6.61
2024-02-14T01:16:52.125Z,6.59
2024-02-14T01:17:02.639Z,6.59
2024-02-14T01:17:13.193Z,6.58
2024-02-14T01:17:23.770Z,6.59
2024-02-14T01:17:34.252Z,6.61
2024-02-14T01:17:44.712Z,6.59
2024-02-14T01:17:55.273Z,6.61
2024-02-14T01:18:05.942Z,6.61
2024-02-14T01:18:16.344Z,6.62
2024-02-14T01:18:26.980Z,6.61
2024-02-14T01:18:37.336Z,6.62
2024-02-14T01:18:47.893Z,6.62
2024-02-14T01:18:58.362Z,6.64
2024-02-14T01:19:08.819Z,6.62
2024-02-14T01:19:19.288Z,6.64
2024-02-14T01:19:29.813Z,6.64
2024-02-14T01:19:40.405Z,6.64
2024-02-14T01:19:50.787Z,6.64
2024-02-14T01:20:01.353Z,6.62
2024-02-14T01:20:11.792Z,6.66
2024-02-14T01:20:22.263Z,6.64
2024-02-14T01:20:32.881Z,6.66
2024-02-14T01:20:43.343Z,6.66
2024-02-14T01:20:53.812Z,6.66
2024-02-14T01:21:04.375Z,6.66
2024-02-14T01:21:14.835Z,6.64
2024-02-14T01:21:25.344Z,6.66
2024-02-14T01:21:35.818Z,6.67
2024-02-14T01:21:46.353Z,6.66
2024-02-14T01:21:56.880Z,6.64
2024-02-14T01:22:07.350Z,6.66
2024-02-14T01:22:17.921Z,6.64
2024-02-14T01:22:28.359Z,6.66
2024-02-14T01:22:38.862Z,6.64
2024-02-14T01:22:49.419Z,6.64
2024-02-14T01:22:59.873Z,6.64
2024-02-14T01:23:10.393Z,6.67
2024-02-14T01:23:20.919Z,6.64
2024-02-14T01:23:31.548Z,6.66
2024-02-14T01:23:41.922Z,6.64
2024-02-14T01:23:52.436Z,6.67
2024-02-14T01:24:03.065Z,6.66
2024-02-14T01:24:13.461Z,6.64
2024-02-14T01:24:23.928Z,6.66
2024-02-14T01:24:34.448Z,6.64
2024-02-14T01:24:44.983Z,6.66
2024-02-14T01:24:55.458Z,6.66
2024-02-14T01:25:06.034Z,6.66
2024-02-14T01:25:16.471Z,6.67
2024-02-14T01:25:26.979Z,6.69
2024-02-14T01:25:37.486Z,6.69
2024-02-14T01:25:47.995Z,6.67
2024-02-14T01:25:58.508Z,6.69
2024-02-14T01:26:09.005Z,6.70
2024-02-14T01:26:19.521Z,6.69
2024-02-14T01:26:30.075Z,6.67
2024-02-14T01:26:40.604Z,6.70
2024-02-14T01:26:51.083Z,6.70
2024-02-14T01:27:01.779Z,6.71
2024-02-14T01:27:12.116Z,6.71
2024-02-14T01:27:22.555Z,6.71
2024-02-14T01:27:33.067Z,6.73
2024-02-14T01:27:43.576Z,6.73
2024-02-14T01:27:54.082Z,6.71
2024-02-14T01:28:04.604Z,6.71
2024-02-14T01:28:15.114Z,6.73
2024-02-14T01:28:25.611Z,6.71
2024-02-14T01:28:36.120Z,6.70
2024-02-14T01:28:46.659Z,6.70
2024-02-14T01:28:57.141Z,6.70
2024-02-14T01:29:07.671Z,6.70
2024-02-14T01:29:18.162Z,6.70
2024-02-14T01:29:28.686Z,6.71
2024-02-14T01:29:39.206Z,6.69
2024-02-14T01:29:49.730Z,6.69
2024-02-14T01:30:00.370Z,6.69
2024-02-14T01:30:10.844Z,6.69
2024-02-14T01:30:21.207Z,6.69
2024-02-14T01:30:31.707Z,6.66
2024-02-14T01:30:42.215Z,6.69
2024-02-14T01:30:52.732Z,6.69
2024-02-14T01:31:03.986Z,6.67
2024-02-14T01:31:13.736Z,6.66
2024-02-14T01:31:24.244Z,6.69
2024-02-14T01:31:34.755Z,6.66
2024-02-14T01:31:45.262Z,6.67
2024-02-14T01:31:55.770Z,6.67
2024-02-14T01:32:06.373Z,6.67
2024-02-14T01:32:16.779Z,6.67
2024-02-14T01:32:27.432Z,6.69
2024-02-14T01:32:37.888Z,6.67
2024-02-14T01:32:48.467Z,6.69
2024-02-14T01:32:58.957Z,6.69
2024-02-14T01:33:09.542Z,6.70
2024-02-14T01:33:19.972Z,6.71
2024-02-14T01:33:30.450Z,6.69
2024-02-14T01:33:40.988Z,6.69
2024-02-14T01:33:51.539Z,6.71
2024-02-14T01:34:02.056Z,6.70
2024-02-14T01:34:12.515Z,6.71
2024-02-14T01:34:22.982Z,6.74
2024-02-14T01:34:33.512Z,6.73
2024-02-14T01:34:44.005Z,6.73
2024-02-14T01:34:54.451Z,6.74
2024-02-14T01:35:04.943Z,6.73
2024-02-14T01:35:15.416Z,6.74
2024-02-14T01:35:26.016Z,6.74
2024-02-14T01:35:36.485Z,6.74
2024-02-14T01:35:46.984Z,6.74
2024-02-14T01:35:57.508Z,6.74
2024-02-14T01:36:07.957Z,6.74
2024-02-14T01:36:18.473Z,6.76
2024-02-14T01:36:28.962Z,6.77
2024-02-14T01:36:39.487Z,6.76
2024-02-14T01:36:49.982Z,6.79
2024-02-14T01:37:00.542Z,6.80
2024-02-14T01:37:11.038Z,6.81
2024-02-14T01:37:21.519Z,6.81
2024-02-14T01:37:32.047Z,6.81
2024-02-14T01:37:42.530Z,6.84
2024-02-14T01:37:53.042Z,6.84
2024-02-14T01:38:03.579Z,6.85
2024-02-14T01:38:14.067Z,6.85
2024-02-14T01:38:24.623Z,6.85
2024-02-14T01:38:35.095Z,6.85
2024-02-14T01:38:45.612Z,6.87
2024-02-14T01:38:56.129Z,6.87
2024-02-14T01:39:06.719Z,6.87
2024-02-14T01:39:17.121Z,6.85
2024-02-14T01:39:27.633Z,6.85
2024-02-14T01:39:38.125Z,6.87
2024-02-14T01:39:48.660Z,6.85
2024-02-14T01:39:59.151Z,6.87
2024-02-14T01:40:09.647Z,6.87
2024-02-14T01:40:20.155Z,6.85
2024-02-14T01:40:30.678Z,6.87
2024-02-14T01:40:41.171Z,6.85
2024-02-14T01:40:51.682Z,6.87
2024-02-14T01:41:02.184Z,6.81
2024-02-14T01:41:12.688Z,6.84
2024-02-14T01:41:23.197Z,6.85
2024-02-14T01:41:33.731Z,6.85
2024-02-14T01:41:44.244Z,6.84
2024-02-14T01:41:54.726Z,6.85
2024-02-14T01:42:05.292Z,6.84
2024-02-14T01:42:15.743Z,6.85
2024-02-14T01:42:26.244Z,6.84
2024-02-14T01:42:36.747Z,6.85
2024-02-14T01:42:47.330Z,6.84
2024-02-14T01:42:57.788Z,6.85
2024-02-14T01:43:08.275Z,6.85
2024-02-14T01:43:18.789Z,6.81
2024-02-14T01:43:29.308Z,6.84
2024-02-14T01:43:39.811Z,6.85
2024-02-14T01:43:50.322Z,6.84
2024-02-14T01:44:00.828Z,6.81
2024-02-14T01:44:11.344Z,6.84
2024-02-14T01:44:21.866Z,6.84
2024-02-14T01:44:32.380Z,6.81
2024-02-14T01:44:42.878Z,6.84
2024-02-14T01:44:53.372Z,6.84
2024-02-14T01:45:03.979Z,6.81
2024-02-14T01:45:14.378Z,6.84
2024-02-14T01:45:24.887Z,6.84
2024-02-14T01:45:35.402Z,6.81
2024-02-14T01:45:45.903Z,6.81
2024-02-14T01:45:56.415Z,6.81
2024-02-14T01:46:06.964Z,6.81
2024-02-14T01:46:17.447Z,6.80
2024-02-14T01:46:27.939Z,6.80
2024-02-14T01:46:38.446Z,6.84
2024-02-14T01:46:48.973Z,6.84
2024-02-14T01:46:59.462Z,6.84
2024-02-14T01:47:09.983Z,6.84
2024-02-14T01:47:20.482Z,6.81
2024-02-14T01:47:31.049Z,6.84
2024-02-14T01:47:41.540Z,6.81
2024-02-14T01:47:52.193Z,6.85
2024-02-14T01:48:02.846Z,6.84
2024-02-14T01:48:13.235Z,6.85
2024-02-14T01:48:23.657Z,6.84
2024-02-14T01:48:34.214Z,6.85
2024-02-14T01:48:44.753Z,6.84
2024-02-14T01:48:55.348Z,6.84
2024-02-14T01:49:05.897Z,6.84
2024-02-14T01:49:16.264Z,6.85
2024-02-14T01:49:26.705Z,6.84
2024-02-14T01:49:37.169Z,6.85
2024-02-14T01:49:47.607Z,6.85
2024-02-14T01:49:58.108Z,6.85
2024-02-14T01:50:08.619Z,6.87
2024-02-14T01:50:19.123Z,6.87
2024-02-14T01:50:29.691Z,6.88
2024-02-14T01:50:40.163Z,6.88
2024-02-14T01:50:50.713Z,6.89
2024-02-14T01:51:01.300Z,6.91
2024-02-14T01:51:11.652Z,6.92
2024-02-14T01:51:22.164Z,6.92
2024-02-14T01:51:32.665Z,6.94
2024-02-14T01:51:43.303Z,6.94
2024-02-14T01:51:53.680Z,6.97
2024-02-14T01:52:04.196Z,6.98
2024-02-14T01:52:14.701Z,6.97
2024-02-14T01:52:25.205Z,6.98
2024-02-14T01:52:35.761Z,6.97
2024-02-14T01:52:46.220Z,6.98
2024-02-14T01:52:56.719Z,6.98
2024-02-14T01:53:07.225Z,7.02
2024-02-14T01:53:17.787Z,7.02
2024-02-14T01:53:28.277Z,7.03
2024-02-14T01:53:38.953Z,7.02
2024-02-14T01:53:49.297Z,7.03
2024-02-14T01:53:59.879Z,7.03
2024-02-14T01:54:10.275Z,7.06
2024-02-14T01:54:20.798Z,7.07
2024-02-14T01:54:31.289Z,7.07
2024-02-14T01:54:41.832Z,7.07
2024-02-14T01:54:52.305Z,7.09
2024-02-14T01:55:02.824Z,7.09
2024-02-14T01:55:13.321Z,7.12
2024-02-14T01:55:23.845Z,7.10
2024-02-14T01:55:34.334Z,7.13
2024-02-14T01:55:44.847Z,7.13
2024-02-14T01:55:55.354Z,7.15
2024-02-14T01:56:05.859Z,7.13
2024-02-14T01:56:16.371Z,7.12
2024-02-14T01:56:26.912Z,7.12
2024-02-14T01:56:37.415Z,7.15
2024-02-14T01:56:47.909Z,7.15
2024-02-14T01:56:58.429Z,7.15
2024-02-14T01:57:08.928Z,7.13
2024-02-14T01:57:19.468Z,7.15
2024-02-14T01:57:29.912Z,7.15
2024-02-14T01:57:40.417Z,7.17
2024-02-14T01:57:50.958Z,7.15
2024-02-14T01:58:01.445Z,7.17
2024-02-14T01:58:11.954Z,7.16
2024-02-14T01:58:22.462Z,7.17
2024-02-14T01:58:32.966Z,7.16
2024-02-14T01:58:43.491Z,7.16
2024-02-14T01:58:53.978Z,7.16
2024-02-14T01:59:04.485Z,7.17
2024-02-14T01:59:15.004Z,7.16
2024-02-14T01:59:25.519Z,7.20
2024-02-14T01:59:36.066Z,7.17
2024-02-14T01:59:46.564Z,7.16
2024-02-14T01:59:57.068Z,7.15
2024-02-14T02:00:07.576Z,7.16
2024-02-14T02:00:18.034Z,7.15
2024-02-14T02:00:28.583Z,7.15
2024-02-14T02:00:39.071Z,7.13
2024-02-14T02:00:49.597Z,7.15
2024-02-14T02:01:00.501Z,7.13
2024-02-14T02:01:10.567Z,7.13
2024-02-14T02:01:21.120Z,7.13
2024-02-14T02:01:31.641Z,7.13
2024-02-14T02:01:42.091Z,7.13
2024-02-14T02:01:52.591Z,7.13
2024-02-14T02:02:03.098Z,7.10
2024-02-14T02:02:13.609Z,7.10
2024-02-14T02:02:24.199Z,7.10
2024-02-14T02:02:34.633Z,7.10
2024-02-14T02:02:45.144Z,7.10
2024-02-14T02:02:55.657Z,7.09
2024-02-14T02:03:06.189Z,7.07
2024-02-14T02:03:16.641Z,7.07
2024-02-14T02:03:27.222Z,7.09
2024-02-14T02:03:37.810Z,7.09
2024-02-14T02:03:48.180Z,7.07
2024-02-14T02:03:58.700Z,7.07
2024-02-14T02:04:09.228Z,7.07
2024-02-14T02:04:19.686Z,7.07
2024-02-14T02:04:30.211Z,7.09
2024-02-14T02:04:40.704Z,7.10
2024-02-14T02:04:51.212Z,7.09
2024-02-14T02:05:01.743Z,7.10
2024-02-14T02:05:12.247Z,7.10
2024-02-14T02:05:22.754Z,7.13
2024-02-14T02:05:33.371Z,7.13
2024-02-14T02:05:43.808Z,7.15
2024-02-14T02:05:54.313Z,7.15
2024-02-14T02:06:05.002Z,7.15
2024-02-14T02:06:15.324Z,7.16
2024-02-14T02:06:25.802Z,7.16
2024-02-14T02:06:36.333Z,7.15
2024-02-14T02:06:46.793Z,7.13
2024-02-14T02:06:57.299Z,7.15
2024-02-14T02:07:07.838Z,7.15
2024-02-14T02:07:18.330Z,7.16
2024-02-14T02:07:28.830Z,7.16
2024-02-14T02:07:39.336Z,7.16
2024-02-14T02:07:49.974Z,7.16
2024-02-14T02:08:00.347Z,7.16
2024-02-14T02:08:10.863Z,7.16
2024-02-14T02:08:21.388Z,7.15
2024-02-14T02:08:31.934Z,7.16
2024-02-14T02:08:42.432Z,7.15
2024-02-14T02:08:52.947Z,7.15
2024-02-14T02:09:03.451Z,7.15
2024-02-14T02:09:13.983Z,7.16
2024-02-14T02:09:24.424Z,7.15
2024-02-14T02:09:34.929Z,7.16
2024-02-14T02:09:45.450Z,7.20
2024-02-14T02:09:55.964Z,7.17
2024-02-14T02:10:06.516Z,7.21
2024-02-14T02:10:17.051Z,7.21
2024-02-14T02:10:27.555Z,7.25
2024-02-14T02:10:38.009Z,7.24
2024-02-14T02:10:48.481Z,7.24
2024-02-14T02:10:58.983Z,7.27
2024-02-14T02:11:09.494Z,7.27
2024-02-14T02:11:19.998Z,7.27
2024-02-14T02:11:30.532Z,7.27
2024-02-14T02:11:41.124Z,7.28
2024-02-14T02:11:51.589Z,7.30
2024-02-14T02:12:02.515Z,7.31
2024-02-14T02:12:12.585Z,7.31
2024-02-14T02:12:23.049Z,7.31
2024-02-14T02:12:33.576Z,7.32
2024-02-14T02:12:44.093Z,7.32
2024-02-14T02:12:54.568Z,7.32
2024-02-14T02:13:05.096Z,7.32
2024-02-14T02:13:15.604Z,7.34
2024-02-14T02:13:26.077Z,7.34
2024-02-14T02:13:36.601Z,7.35
2024-02-14T02:13:47.105Z,7.35
2024-02-14T02:13:57.605Z,7.37
2024-02-14T02:14:08.116Z,7.39
2024-02-14T02:14:18.627Z,7.37
2024-02-14T02:14:29.169Z,7.35
2024-02-14T02:14:39.675Z,7.37
2024-02-14T02:14:50.171Z,7.39
2024-02-14T02:15:00.696Z,7.37
2024-02-14T02:15:11.281Z,7.39
2024-02-14T02:15:21.686Z,7.39
2024-02-14T02:15:32.183Z,7.37
2024-02-14T02:15:42.695Z,7.35
2024-02-14T02:15:53.212Z,7.35
2024-02-14T02:16:03.720Z,7.34
2024-02-14T02:16:14.214Z,7.35
2024-02-14T02:16:24.740Z,7.35
2024-02-14T02:16:35.236Z,7.35
2024-02-14T02:16:45.794Z,7.34
2024-02-14T02:16:56.265Z,7.34
2024-02-14T02:17:06.770Z,7.35
2024-02-14T02:17:17.264Z,7.32
2024-02-14T02:17:27.895Z,7.32
2024-02-14T02:17:38.344Z,7.32
2024-02-14T02:17:48.926Z,7.32
2024-02-14T02:17:59.530Z,7.31
2024-02-14T02:18:09.998Z,7.34
2024-02-14T02:18:20.433Z,7.31
2024-02-14T02:18:30.982Z,7.32
2024-02-14T02:18:41.448Z,7.31
2024-02-14T02:18:52.175Z,7.31
2024-02-14T02:19:02.502Z,7.32
2024-02-14T02:19:12.980Z,7.32
2024-02-14T02:19:23.560Z,7.32
2024-02-14T02:19:33.918Z,7.31
2024-02-14T02:19:44.398Z,7.32
2024-02-14T02:19:54.911Z,7.34